sensor_id;sensor_type;location;lat;lon;timestamp;P1;durP1;ratioP1;P2;durP2;ratioP2
33162;SDS011;29282;45.656;11.302;2022-12-18T00:01:47;5.03;;;2.80;;
33162;SDS011;29282;45.656;11.302;2022-12-18T00:04:22;4.25;;;2.95;;
33162;SDS011;29282;45.656;11.302;2022-12-18T00:06:49;5.57;;;3.10;;
33162;SDS011;29282;45.656;11.302;2022-12-18T00:09:15;3.63;;;2.65;;
33162;SDS011;29282;45.656;11.302;2022-12-18T00:11:41;6.15;;;3.22;;
33162;SDS011;29282;45.656;11.302;2022-12-18T00:14:07;6.60;;;3.25;;
33162;SDS011;29282;45.656;11.302;2022-12-18T00:16:33;6.25;;;3.10;;
33162;SDS011;29282;45.656;11.302;2022-12-18T00:19:00;6.13;;;3.33;;
33162;SDS011;29282;45.656;11.302;2022-12-18T00:21:26;4.97;;;2.90;;
33162;SDS011;29282;45.656;11.302;2022-12-18T00:23:53;5.25;;;3.03;;
33162;SDS011;29282;45.656;11.302;2022-12-18T00:26:22;3.80;;;2.83;;
33162;SDS011;29282;45.656;11.302;2022-12-18T00:28:50;4.95;;;3.00;;
33162;SDS011;29282;45.656;11.302;2022-12-18T00:31:20;4.60;;;2.67;;
33162;SDS011;29282;45.656;11.302;2022-12-18T00:33:47;4.82;;;3.10;;
33162;SDS011;29282;45.656;11.302;2022-12-18T00:36:14;5.18;;;2.75;;
33162;SDS011;29282;45.656;11.302;2022-12-18T00:38:42;5.43;;;2.97;;
33162;SDS011;29282;45.656;11.302;2022-12-18T00:41:09;4.55;;;3.03;;
33162;SDS011;29282;45.656;11.302;2022-12-18T00:43:36;5.60;;;3.17;;
33162;SDS011;29282;45.656;11.302;2022-12-18T00:46:02;4.35;;;3.08;;
33162;SDS011;29282;45.656;11.302;2022-12-18T00:48:28;3.97;;;2.97;;
33162;SDS011;29282;45.656;11.302;2022-12-18T00:50:53;5.43;;;2.90;;
33162;SDS011;29282;45.656;11.302;2022-12-18T00:53:19;4.40;;;2.83;;
33162;SDS011;29282;45.656;11.302;2022-12-18T00:55:44;5.25;;;2.58;;
33162;SDS011;29282;45.656;11.302;2022-12-18T00:58:11;4.13;;;2.97;;
33162;SDS011;29282;45.656;11.302;2022-12-18T01:00:37;3.22;;;2.67;;
33162;SDS011;29282;45.656;11.302;2022-12-18T01:03:03;3.65;;;2.90;;
33162;SDS011;29282;45.656;11.302;2022-12-18T01:05:29;4.28;;;2.80;;
33162;SDS011;29282;45.656;11.302;2022-12-18T01:07:55;4.25;;;2.92;;
33162;SDS011;29282;45.656;11.302;2022-12-18T01:10:21;2.70;;;2.38;;
33162;SDS011;29282;45.656;11.302;2022-12-18T01:12:48;4.43;;;2.72;;
33162;SDS011;29282;45.656;11.302;2022-12-18T01:15:14;4.03;;;2.67;;
33162;SDS011;29282;45.656;11.302;2022-12-18T01:17:41;4.32;;;2.95;;
33162;SDS011;29282;45.656;11.302;2022-12-18T01:20:07;7.80;;;2.90;;
33162;SDS011;29282;45.656;11.302;2022-12-18T01:22:34;4.78;;;2.55;;
33162;SDS011;29282;45.656;11.302;2022-12-18T01:25:00;4.53;;;2.65;;
33162;SDS011;29282;45.656;11.302;2022-12-18T01:27:26;2.85;;;2.50;;
33162;SDS011;29282;45.656;11.302;2022-12-18T01:29:51;4.60;;;2.72;;
33162;SDS011;29282;45.656;11.302;2022-12-18T01:32:17;3.15;;;2.47;;
33162;SDS011;29282;45.656;11.302;2022-12-18T01:34:42;6.47;;;2.85;;
33162;SDS011;29282;45.656;11.302;2022-12-18T01:37:08;4.28;;;2.47;;
33162;SDS011;29282;45.656;11.302;2022-12-18T01:39:34;6.55;;;2.65;;
33162;SDS011;29282;45.656;11.302;2022-12-18T01:42:00;5.40;;;2.60;;
33162;SDS011;29282;45.656;11.302;2022-12-18T01:47:19;5.70;;;2.73;;
33162;SDS011;29282;45.656;11.302;2022-12-18T01:49:48;3.15;;;2.67;;
33162;SDS011;29282;45.656;11.302;2022-12-18T01:52:14;5.22;;;2.80;;
33162;SDS011;29282;45.656;11.302;2022-12-18T01:54:40;5.60;;;2.75;;
33162;SDS011;29282;45.656;11.302;2022-12-18T01:57:06;3.42;;;2.55;;
33162;SDS011;29282;45.656;11.302;2022-12-18T01:59:32;4.85;;;2.70;;
33162;SDS011;29282;45.656;11.302;2022-12-18T02:01:59;6.07;;;2.88;;
33162;SDS011;29282;45.656;11.302;2022-12-18T02:04:26;4.15;;;2.67;;
33162;SDS011;29282;45.656;11.302;2022-12-18T02:09:46;4.18;;;2.88;;
33162;SDS011;29282;45.656;11.302;2022-12-18T02:14:45;5.18;;;2.53;;
33162;SDS011;29282;45.656;11.302;2022-12-18T02:20:44;4.00;;;2.65;;
33162;SDS011;29282;45.656;11.302;2022-12-18T02:28:41;3.42;;;2.83;;
33162;SDS011;29282;45.656;11.302;2022-12-18T02:31:13;2.90;;;2.63;;
33162;SDS011;29282;45.656;11.302;2022-12-18T02:33:42;4.10;;;2.33;;
33162;SDS011;29282;45.656;11.302;2022-12-18T02:36:10;3.22;;;2.50;;
33162;SDS011;29282;45.656;11.302;2022-12-18T02:38:39;3.13;;;2.67;;
33162;SDS011;29282;45.656;11.302;2022-12-18T02:41:06;4.05;;;2.80;;
33162;SDS011;29282;45.656;11.302;2022-12-18T02:43:32;3.95;;;2.50;;
33162;SDS011;29282;45.656;11.302;2022-12-18T02:45:58;4.20;;;2.40;;
33162;SDS011;29282;45.656;11.302;2022-12-18T02:48:28;2.65;;;2.42;;
33162;SDS011;29282;45.656;11.302;2022-12-18T02:53:56;2.65;;;2.35;;
33162;SDS011;29282;45.656;11.302;2022-12-18T02:56:53;3.50;;;2.55;;
33162;SDS011;29282;45.656;11.302;2022-12-18T02:59:24;5.00;;;2.40;;
33162;SDS011;29282;45.656;11.302;2022-12-18T03:01:58;2.95;;;2.15;;
33162;SDS011;29282;45.656;11.302;2022-12-18T03:04:34;3.40;;;2.33;;
33162;SDS011;29282;45.656;11.302;2022-12-18T03:07:44;2.90;;;2.30;;
33162;SDS011;29282;45.656;11.302;2022-12-18T03:10:13;2.97;;;2.22;;
33162;SDS011;29282;45.656;11.302;2022-12-18T03:12:48;3.00;;;2.30;;
33162;SDS011;29282;45.656;11.302;2022-12-18T03:17:52;2.88;;;2.30;;
33162;SDS011;29282;45.656;11.302;2022-12-18T03:20:30;2.50;;;2.30;;
33162;SDS011;29282;45.656;11.302;2022-12-18T03:23:11;4.43;;;2.33;;
33162;SDS011;29282;45.656;11.302;2022-12-18T03:25:42;2.15;;;1.95;;
33162;SDS011;29282;45.656;11.302;2022-12-18T03:28:12;3.05;;;2.50;;
33162;SDS011;29282;45.656;11.302;2022-12-18T03:30:41;3.05;;;2.38;;
33162;SDS011;29282;45.656;11.302;2022-12-18T03:33:29;2.67;;;2.13;;
33162;SDS011;29282;45.656;11.302;2022-12-18T03:35:59;3.03;;;2.33;;
33162;SDS011;29282;45.656;11.302;2022-12-18T03:38:26;2.25;;;2.00;;
33162;SDS011;29282;45.656;11.302;2022-12-18T03:46:33;4.60;;;2.35;;
33162;SDS011;29282;45.656;11.302;2022-12-18T03:49:08;2.60;;;2.13;;
33162;SDS011;29282;45.656;11.302;2022-12-18T03:51:45;2.67;;;2.08;;
33162;SDS011;29282;45.656;11.302;2022-12-18T03:54:17;4.18;;;2.45;;
33162;SDS011;29282;45.656;11.302;2022-12-18T03:56:45;2.30;;;2.10;;
33162;SDS011;29282;45.656;11.302;2022-12-18T03:59:16;2.20;;;2.00;;
33162;SDS011;29282;45.656;11.302;2022-12-18T04:01:47;2.40;;;2.13;;
33162;SDS011;29282;45.656;11.302;2022-12-18T04:04:16;3.25;;;2.10;;
33162;SDS011;29282;45.656;11.302;2022-12-18T04:06:43;3.30;;;2.38;;
33162;SDS011;29282;45.656;11.302;2022-12-18T04:09:12;3.25;;;2.30;;
33162;SDS011;29282;45.656;11.302;2022-12-18T04:11:39;3.22;;;2.03;;
33162;SDS011;29282;45.656;11.302;2022-12-18T04:14:06;3.35;;;2.42;;
33162;SDS011;29282;45.656;11.302;2022-12-18T04:16:31;2.35;;;1.90;;
33162;SDS011;29282;45.656;11.302;2022-12-18T04:18:57;2.38;;;2.03;;
33162;SDS011;29282;45.656;11.302;2022-12-18T04:21:22;5.40;;;2.20;;
33162;SDS011;29282;45.656;11.302;2022-12-18T04:23:48;5.15;;;2.15;;
33162;SDS011;29282;45.656;11.302;2022-12-18T04:26:13;2.92;;;2.20;;
33162;SDS011;29282;45.656;11.302;2022-12-18T04:28:39;2.67;;;2.08;;
33162;SDS011;29282;45.656;11.302;2022-12-18T04:31:04;2.10;;;1.90;;
33162;SDS011;29282;45.656;11.302;2022-12-18T04:33:30;2.70;;;1.88;;
33162;SDS011;29282;45.656;11.302;2022-12-18T04:35:56;2.67;;;2.15;;
33162;SDS011;29282;45.656;11.302;2022-12-18T04:38:21;4.07;;;1.95;;
33162;SDS011;29282;45.656;11.302;2022-12-18T04:40:46;2.42;;;2.10;;
33162;SDS011;29282;45.656;11.302;2022-12-18T04:43:12;3.05;;;2.00;;
33162;SDS011;29282;45.656;11.302;2022-12-18T04:45:38;2.63;;;2.10;;
33162;SDS011;29282;45.656;11.302;2022-12-18T04:48:03;2.65;;;1.92;;
33162;SDS011;29282;45.656;11.302;2022-12-18T04:50:29;2.00;;;1.70;;
33162;SDS011;29282;45.656;11.302;2022-12-18T04:52:55;2.38;;;2.17;;
33162;SDS011;29282;45.656;11.302;2022-12-18T04:55:24;2.10;;;1.90;;
33162;SDS011;29282;45.656;11.302;2022-12-18T04:57:49;2.20;;;1.90;;
33162;SDS011;29282;45.656;11.302;2022-12-18T05:00:15;2.28;;;1.88;;
33162;SDS011;29282;45.656;11.302;2022-12-18T05:02:41;2.60;;;1.88;;
33162;SDS011;29282;45.656;11.302;2022-12-18T05:05:06;2.35;;;1.85;;
33162;SDS011;29282;45.656;11.302;2022-12-18T05:07:32;2.40;;;1.90;;
33162;SDS011;29282;45.656;11.302;2022-12-18T05:09:58;2.75;;;2.20;;
33162;SDS011;29282;45.656;11.302;2022-12-18T05:12:23;1.98;;;1.83;;
33162;SDS011;29282;45.656;11.302;2022-12-18T05:14:49;2.47;;;2.28;;
33162;SDS011;29282;45.656;11.302;2022-12-18T05:17:14;2.70;;;2.17;;
33162;SDS011;29282;45.656;11.302;2022-12-18T05:19:40;1.90;;;1.60;;
33162;SDS011;29282;45.656;11.302;2022-12-18T05:22:05;2.30;;;2.10;;
33162;SDS011;29282;45.656;11.302;2022-12-18T05:24:33;1.85;;;1.67;;
33162;SDS011;29282;45.656;11.302;2022-12-18T05:26:58;2.00;;;1.83;;
33162;SDS011;29282;45.656;11.302;2022-12-18T05:29:24;1.92;;;1.70;;
33162;SDS011;29282;45.656;11.302;2022-12-18T05:31:50;3.28;;;2.25;;
33162;SDS011;29282;45.656;11.302;2022-12-18T05:34:15;2.60;;;1.90;;
33162;SDS011;29282;45.656;11.302;2022-12-18T05:36:41;2.17;;;1.60;;
33162;SDS011;29282;45.656;11.302;2022-12-18T05:39:07;2.55;;;1.90;;
33162;SDS011;29282;45.656;11.302;2022-12-18T05:41:33;5.07;;;2.10;;
33162;SDS011;29282;45.656;11.302;2022-12-18T05:43:58;2.00;;;1.67;;
33162;SDS011;29282;45.656;11.302;2022-12-18T05:46:24;2.25;;;2.00;;
33162;SDS011;29282;45.656;11.302;2022-12-18T05:48:50;2.63;;;2.00;;
33162;SDS011;29282;45.656;11.302;2022-12-18T05:51:16;2.10;;;1.90;;
33162;SDS011;29282;45.656;11.302;2022-12-18T05:53:44;2.75;;;1.70;;
33162;SDS011;29282;45.656;11.302;2022-12-18T05:56:15;2.60;;;1.98;;
33162;SDS011;29282;45.656;11.302;2022-12-18T05:58:44;2.00;;;1.80;;
33162;SDS011;29282;45.656;11.302;2022-12-18T06:01:13;2.00;;;1.80;;
33162;SDS011;29282;45.656;11.302;2022-12-18T06:03:41;2.13;;;1.65;;
33162;SDS011;29282;45.656;11.302;2022-12-18T06:06:20;1.92;;;1.70;;
33162;SDS011;29282;45.656;11.302;2022-12-18T06:08:51;2.00;;;1.60;;
33162;SDS011;29282;45.656;11.302;2022-12-18T06:11:25;2.60;;;2.03;;
33162;SDS011;29282;45.656;11.302;2022-12-18T06:13:51;2.83;;;1.90;;
33162;SDS011;29282;45.656;11.302;2022-12-18T06:16:18;3.47;;;1.98;;
33162;SDS011;29282;45.656;11.302;2022-12-18T06:18:43;2.38;;;1.85;;
33162;SDS011;29282;45.656;11.302;2022-12-18T06:21:09;1.80;;;1.65;;
33162;SDS011;29282;45.656;11.302;2022-12-18T06:23:35;2.33;;;2.00;;
33162;SDS011;29282;45.656;11.302;2022-12-18T06:26:07;1.90;;;1.70;;
33162;SDS011;29282;45.656;11.302;2022-12-18T06:28:34;1.70;;;1.60;;
33162;SDS011;29282;45.656;11.302;2022-12-18T06:31:00;2.45;;;1.85;;
33162;SDS011;29282;45.656;11.302;2022-12-18T06:33:27;2.20;;;2.00;;
33162;SDS011;29282;45.656;11.302;2022-12-18T06:36:02;2.40;;;1.90;;
33162;SDS011;29282;45.656;11.302;2022-12-18T06:38:29;1.73;;;1.63;;
33162;SDS011;29282;45.656;11.302;2022-12-18T06:40:56;2.28;;;1.88;;
33162;SDS011;29282;45.656;11.302;2022-12-18T06:43:22;1.75;;;1.58;;
33162;SDS011;29282;45.656;11.302;2022-12-18T06:45:47;4.47;;;2.17;;
33162;SDS011;29282;45.656;11.302;2022-12-18T06:48:18;1.67;;;1.58;;
33162;SDS011;29282;45.656;11.302;2022-12-18T06:50:44;1.98;;;1.60;;
33162;SDS011;29282;45.656;11.302;2022-12-18T06:53:10;1.70;;;1.60;;
33162;SDS011;29282;45.656;11.302;2022-12-18T06:55:36;2.10;;;1.73;;
33162;SDS011;29282;45.656;11.302;2022-12-18T06:58:01;3.15;;;2.17;;
33162;SDS011;29282;45.656;11.302;2022-12-18T07:00:27;2.22;;;1.80;;
33162;SDS011;29282;45.656;11.302;2022-12-18T07:02:53;1.98;;;1.77;;
33162;SDS011;29282;45.656;11.302;2022-12-18T07:05:19;3.17;;;1.92;;
33162;SDS011;29282;45.656;11.302;2022-12-18T07:07:44;2.92;;;1.80;;
33162;SDS011;29282;45.656;11.302;2022-12-18T07:10:10;1.88;;;1.77;;
33162;SDS011;29282;45.656;11.302;2022-12-18T07:12:35;2.03;;;1.83;;
33162;SDS011;29282;45.656;11.302;2022-12-18T07:15:01;2.35;;;1.95;;
33162;SDS011;29282;45.656;11.302;2022-12-18T07:17:27;2.13;;;1.92;;
33162;SDS011;29282;45.656;11.302;2022-12-18T07:19:52;2.25;;;1.80;;
33162;SDS011;29282;45.656;11.302;2022-12-18T07:22:18;4.32;;;2.67;;
33162;SDS011;29282;45.656;11.302;2022-12-18T07:24:43;3.97;;;2.40;;
33162;SDS011;29282;45.656;11.302;2022-12-18T07:27:09;2.80;;;2.50;;
33162;SDS011;29282;45.656;11.302;2022-12-18T07:29:34;3.90;;;2.85;;
33162;SDS011;29282;45.656;11.302;2022-12-18T07:32:00;3.03;;;2.65;;
33162;SDS011;29282;45.656;11.302;2022-12-18T07:34:25;3.70;;;3.35;;
33162;SDS011;29282;45.656;11.302;2022-12-18T07:36:51;4.63;;;4.15;;
33162;SDS011;29282;45.656;11.302;2022-12-18T07:39:16;3.85;;;3.33;;
33162;SDS011;29282;45.656;11.302;2022-12-18T07:41:42;9.10;;;3.20;;
33162;SDS011;29282;45.656;11.302;2022-12-18T07:44:11;3.65;;;3.10;;
33162;SDS011;29282;45.656;11.302;2022-12-18T07:46:37;3.28;;;2.97;;
33162;SDS011;29282;45.656;11.302;2022-12-18T07:49:03;5.72;;;3.15;;
33162;SDS011;29282;45.656;11.302;2022-12-18T07:51:28;3.40;;;3.10;;
33162;SDS011;29282;45.656;11.302;2022-12-18T07:53:54;5.63;;;2.78;;
33162;SDS011;29282;45.656;11.302;2022-12-18T07:56:20;5.43;;;2.60;;
33162;SDS011;29282;45.656;11.302;2022-12-18T07:58:46;3.83;;;2.80;;
33162;SDS011;29282;45.656;11.302;2022-12-18T08:01:11;6.38;;;3.10;;
33162;SDS011;29282;45.656;11.302;2022-12-18T08:03:39;4.40;;;2.80;;
33162;SDS011;29282;45.656;11.302;2022-12-18T08:06:07;2.80;;;2.50;;
33162;SDS011;29282;45.656;11.302;2022-12-18T08:08:34;3.10;;;2.80;;
33162;SDS011;29282;45.656;11.302;2022-12-18T08:11:00;4.07;;;2.88;;
33162;SDS011;29282;45.656;11.302;2022-12-18T08:13:26;2.88;;;2.40;;
33162;SDS011;29282;45.656;11.302;2022-12-18T08:15:59;4.40;;;2.60;;
33162;SDS011;29282;45.656;11.302;2022-12-18T08:18:26;2.72;;;2.47;;
33162;SDS011;29282;45.656;11.302;2022-12-18T08:20:52;19.23;;;3.00;;
33162;SDS011;29282;45.656;11.302;2022-12-18T08:23:18;6.55;;;3.15;;
33162;SDS011;29282;45.656;11.302;2022-12-18T08:25:44;6.80;;;3.05;;
33162;SDS011;29282;45.656;11.302;2022-12-18T08:28:10;2.85;;;2.63;;
33162;SDS011;29282;45.656;11.302;2022-12-18T08:30:36;6.80;;;2.90;;
33162;SDS011;29282;45.656;11.302;2022-12-18T08:33:01;7.88;;;2.63;;
33162;SDS011;29282;45.656;11.302;2022-12-18T08:35:27;4.15;;;2.65;;
33162;SDS011;29282;45.656;11.302;2022-12-18T08:37:53;7.82;;;2.90;;
33162;SDS011;29282;45.656;11.302;2022-12-18T08:40:18;3.38;;;2.67;;
33162;SDS011;29282;45.656;11.302;2022-12-18T08:42:44;3.92;;;2.97;;
33162;SDS011;29282;45.656;11.302;2022-12-18T08:45:28;8.30;;;3.25;;
33162;SDS011;29282;45.656;11.302;2022-12-18T08:47:53;13.93;;;3.30;;
33162;SDS011;29282;45.656;11.302;2022-12-18T08:50:19;4.93;;;3.30;;
33162;SDS011;29282;45.656;11.302;2022-12-18T08:52:45;8.90;;;3.22;;
33162;SDS011;29282;45.656;11.302;2022-12-18T08:55:10;8.20;;;3.45;;
33162;SDS011;29282;45.656;11.302;2022-12-18T08:57:36;10.38;;;3.67;;
33162;SDS011;29282;45.656;11.302;2022-12-18T09:00:02;12.98;;;3.30;;
33162;SDS011;29282;45.656;11.302;2022-12-18T09:02:29;8.10;;;3.30;;
33162;SDS011;29282;45.656;11.302;2022-12-18T09:04:54;6.05;;;3.20;;
33162;SDS011;29282;45.656;11.302;2022-12-18T09:07:20;4.00;;;2.97;;
33162;SDS011;29282;45.656;11.302;2022-12-18T09:09:45;6.57;;;3.17;;
33162;SDS011;29282;45.656;11.302;2022-12-18T09:12:10;6.72;;;3.05;;
33162;SDS011;29282;45.656;11.302;2022-12-18T09:14:36;6.15;;;3.42;;
33162;SDS011;29282;45.656;11.302;2022-12-18T09:17:01;8.00;;;3.47;;
33162;SDS011;29282;45.656;11.302;2022-12-18T09:19:27;3.85;;;3.20;;
33162;SDS011;29282;45.656;11.302;2022-12-18T09:21:53;7.93;;;2.90;;
33162;SDS011;29282;45.656;11.302;2022-12-18T09:24:18;7.70;;;2.90;;
33162;SDS011;29282;45.656;11.302;2022-12-18T09:26:44;9.43;;;3.60;;
33162;SDS011;29282;45.656;11.302;2022-12-18T09:29:09;4.82;;;3.30;;
33162;SDS011;29282;45.656;11.302;2022-12-18T09:31:35;8.50;;;3.47;;
33162;SDS011;29282;45.656;11.302;2022-12-18T09:34:01;12.52;;;3.88;;
33162;SDS011;29282;45.656;11.302;2022-12-18T09:36:27;8.27;;;3.45;;
33162;SDS011;29282;45.656;11.302;2022-12-18T09:38:52;8.35;;;3.55;;
33162;SDS011;29282;45.656;11.302;2022-12-18T09:44:05;16.42;;;3.95;;
33162;SDS011;29282;45.656;11.302;2022-12-18T09:46:43;5.10;;;3.00;;
33162;SDS011;29282;45.656;11.302;2022-12-18T09:49:34;5.15;;;3.53;;
33162;SDS011;29282;45.656;11.302;2022-12-18T09:55:11;10.52;;;4.07;;
33162;SDS011;29282;45.656;11.302;2022-12-18T09:57:42;11.30;;;4.00;;
33162;SDS011;29282;45.656;11.302;2022-12-18T10:02:44;9.35;;;3.72;;
33162;SDS011;29282;45.656;11.302;2022-12-18T10:05:15;17.33;;;4.60;;
33162;SDS011;29282;45.656;11.302;2022-12-18T10:10:48;14.68;;;4.47;;
33162;SDS011;29282;45.656;11.302;2022-12-18T10:16:00;9.63;;;4.53;;
33162;SDS011;29282;45.656;11.302;2022-12-18T10:21:15;13.88;;;5.28;;
33162;SDS011;29282;45.656;11.302;2022-12-18T10:27:21;15.60;;;4.72;;
33162;SDS011;29282;45.656;11.302;2022-12-18T10:29:49;14.10;;;5.43;;
33162;SDS011;29282;45.656;11.302;2022-12-18T10:32:16;12.27;;;5.28;;
33162;SDS011;29282;45.656;11.302;2022-12-18T10:34:48;13.18;;;5.30;;
33162;SDS011;29282;45.656;11.302;2022-12-18T10:37:19;14.32;;;5.00;;
33162;SDS011;29282;45.656;11.302;2022-12-18T10:39:46;12.98;;;5.60;;
33162;SDS011;29282;45.656;11.302;2022-12-18T10:42:30;11.10;;;5.13;;
33162;SDS011;29282;45.656;11.302;2022-12-18T10:45:08;12.70;;;5.40;;
33162;SDS011;29282;45.656;11.302;2022-12-18T10:47:43;15.32;;;5.50;;
33162;SDS011;29282;45.656;11.302;2022-12-18T10:52:58;17.60;;;5.95;;
33162;SDS011;29282;45.656;11.302;2022-12-18T10:55:38;13.13;;;5.53;;
33162;SDS011;29282;45.656;11.302;2022-12-18T11:01:15;17.42;;;5.57;;
33162;SDS011;29282;45.656;11.302;2022-12-18T11:03:58;14.85;;;5.28;;
33162;SDS011;29282;45.656;11.302;2022-12-18T11:06:27;18.20;;;5.43;;
33162;SDS011;29282;45.656;11.302;2022-12-18T11:09:03;18.95;;;5.28;;
33162;SDS011;29282;45.656;11.302;2022-12-18T11:11:31;20.70;;;5.57;;
33162;SDS011;29282;45.656;11.302;2022-12-18T11:16:29;32.75;;;6.28;;
33162;SDS011;29282;45.656;11.302;2022-12-18T11:22:01;13.30;;;5.68;;
33162;SDS011;29282;45.656;11.302;2022-12-18T11:24:43;14.45;;;5.63;;
33162;SDS011;29282;45.656;11.302;2022-12-18T11:29:43;17.23;;;5.47;;
33162;SDS011;29282;45.656;11.302;2022-12-18T11:34:50;18.52;;;5.50;;
33162;SDS011;29282;45.656;11.302;2022-12-18T11:37:29;16.33;;;5.05;;
33162;SDS011;29282;45.656;11.302;2022-12-18T11:39:57;19.85;;;5.43;;
33162;SDS011;29282;45.656;11.302;2022-12-18T11:42:32;17.63;;;4.80;;
33162;SDS011;29282;45.656;11.302;2022-12-18T11:47:42;12.68;;;4.60;;
33162;SDS011;29282;45.656;11.302;2022-12-18T11:50:16;13.23;;;4.75;;
33162;SDS011;29282;45.656;11.302;2022-12-18T11:52:44;32.47;;;5.90;;
33162;SDS011;29282;45.656;11.302;2022-12-18T11:55:11;12.35;;;4.90;;
33162;SDS011;29282;45.656;11.302;2022-12-18T12:00:20;10.32;;;5.15;;
33162;SDS011;29282;45.656;11.302;2022-12-18T12:05:43;13.38;;;5.03;;
33162;SDS011;29282;45.656;11.302;2022-12-18T12:21:58;11.90;;;4.30;;
33162;SDS011;29282;45.656;11.302;2022-12-18T12:25:31;15.65;;;4.90;;
33162;SDS011;29282;45.656;11.302;2022-12-18T12:30:24;20.98;;;4.72;;
33162;SDS011;29282;45.656;11.302;2022-12-18T12:35:37;17.83;;;5.45;;
33162;SDS011;29282;45.656;11.302;2022-12-18T12:38:14;13.85;;;4.85;;
33162;SDS011;29282;45.656;11.302;2022-12-18T12:40:49;16.65;;;4.80;;
33162;SDS011;29282;45.656;11.302;2022-12-18T12:46:06;10.52;;;6.15;;
33162;SDS011;29282;45.656;11.302;2022-12-18T12:51:21;13.68;;;6.10;;
33162;SDS011;29282;45.656;11.302;2022-12-18T12:53:50;12.10;;;5.28;;
33162;SDS011;29282;45.656;11.302;2022-12-18T12:56:19;11.98;;;5.53;;
33162;SDS011;29282;45.656;11.302;2022-12-18T12:58:55;11.55;;;4.85;;
33162;SDS011;29282;45.656;11.302;2022-12-18T13:07:03;11.38;;;4.93;;
33162;SDS011;29282;45.656;11.302;2022-12-18T13:12:53;13.82;;;4.68;;
33162;SDS011;29282;45.656;11.302;2022-12-18T13:15:32;7.50;;;4.50;;
33162;SDS011;29282;45.656;11.302;2022-12-18T13:18:04;11.27;;;4.55;;
33162;SDS011;29282;45.656;11.302;2022-12-18T13:23:25;12.73;;;4.53;;
33162;SDS011;29282;45.656;11.302;2022-12-18T13:31:57;8.77;;;4.43;;
33162;SDS011;29282;45.656;11.302;2022-12-18T13:34:14;9.82;;;4.68;;
33162;SDS011;29282;45.656;11.302;2022-12-18T13:36:41;9.13;;;3.90;;
33162;SDS011;29282;45.656;11.302;2022-12-18T13:39:15;9.15;;;3.75;;
33162;SDS011;29282;45.656;11.302;2022-12-18T13:44:38;12.43;;;4.20;;
33162;SDS011;29282;45.656;11.302;2022-12-18T13:47:28;6.78;;;4.00;;
33162;SDS011;29282;45.656;11.302;2022-12-18T13:50:00;9.15;;;4.10;;
33162;SDS011;29282;45.656;11.302;2022-12-18T13:52:50;13.02;;;3.90;;
33162;SDS011;29282;45.656;11.302;2022-12-18T13:55:18;6.45;;;3.75;;
33162;SDS011;29282;45.656;11.302;2022-12-18T13:57:45;7.20;;;3.92;;
33162;SDS011;29282;45.656;11.302;2022-12-18T14:02:50;11.02;;;3.70;;
33162;SDS011;29282;45.656;11.302;2022-12-18T14:05:27;8.50;;;3.58;;
33162;SDS011;29282;45.656;11.302;2022-12-18T14:08:01;14.48;;;4.10;;
33162;SDS011;29282;45.656;11.302;2022-12-18T14:10:31;9.90;;;3.97;;
33162;SDS011;29282;45.656;11.302;2022-12-18T14:12:59;12.43;;;4.00;;
33162;SDS011;29282;45.656;11.302;2022-12-18T14:15:34;13.60;;;4.38;;
33162;SDS011;29282;45.656;11.302;2022-12-18T14:20:49;11.13;;;3.97;;
33162;SDS011;29282;45.656;11.302;2022-12-18T14:28:58;10.85;;;4.05;;
33162;SDS011;29282;45.656;11.302;2022-12-18T14:31:29;7.37;;;3.90;;
33162;SDS011;29282;45.656;11.302;2022-12-18T14:33:56;9.20;;;3.70;;
33162;SDS011;29282;45.656;11.302;2022-12-18T14:36:24;10.88;;;3.97;;
33162;SDS011;29282;45.656;11.302;2022-12-18T14:38:53;9.63;;;3.40;;
33162;SDS011;29282;45.656;11.302;2022-12-18T14:41:24;8.68;;;4.03;;
33162;SDS011;29282;45.656;11.302;2022-12-18T14:43:52;8.02;;;3.85;;
33162;SDS011;29282;45.656;11.302;2022-12-18T14:48:54;9.75;;;3.92;;
33162;SDS011;29282;45.656;11.302;2022-12-18T14:51:21;9.90;;;3.97;;
33162;SDS011;29282;45.656;11.302;2022-12-18T15:03:50;9.23;;;3.80;;
33162;SDS011;29282;45.656;11.302;2022-12-18T15:06:17;8.68;;;4.20;;
33162;SDS011;29282;45.656;11.302;2022-12-18T15:08:59;6.63;;;3.90;;
33162;SDS011;29282;45.656;11.302;2022-12-18T15:14:32;6.60;;;4.10;;
33162;SDS011;29282;45.656;11.302;2022-12-18T15:17:21;7.80;;;4.05;;
33162;SDS011;29282;45.656;11.302;2022-12-18T15:19:50;5.15;;;3.95;;
33162;SDS011;29282;45.656;11.302;2022-12-18T15:24:52;6.25;;;3.97;;
33162;SDS011;29282;45.656;11.302;2022-12-18T15:27:26;7.80;;;4.45;;
33162;SDS011;29282;45.656;11.302;2022-12-18T15:32:37;8.25;;;4.20;;
33162;SDS011;29282;45.656;11.302;2022-12-18T15:37:37;6.20;;;4.22;;
33162;SDS011;29282;45.656;11.302;2022-12-18T15:40:06;15.30;;;4.00;;
33162;SDS011;29282;45.656;11.302;2022-12-18T15:42:36;7.13;;;4.43;;
33162;SDS011;29282;45.656;11.302;2022-12-18T15:45:21;6.68;;;4.22;;
33162;SDS011;29282;45.656;11.302;2022-12-18T15:47:46;10.68;;;4.28;;
33162;SDS011;29282;45.656;11.302;2022-12-18T15:50:12;8.07;;;5.05;;
33162;SDS011;29282;45.656;11.302;2022-12-18T15:52:39;7.15;;;4.40;;
33162;SDS011;29282;45.656;11.302;2022-12-18T15:55:15;5.53;;;4.00;;
33162;SDS011;29282;45.656;11.302;2022-12-18T15:58:01;10.18;;;4.55;;
33162;SDS011;29282;45.656;11.302;2022-12-18T16:00:28;6.15;;;3.97;;
33162;SDS011;29282;45.656;11.302;2022-12-18T16:02:55;8.50;;;4.47;;
33162;SDS011;29282;45.656;11.302;2022-12-18T16:05:21;8.10;;;4.75;;
33162;SDS011;29282;45.656;11.302;2022-12-18T16:07:48;8.50;;;4.40;;
33162;SDS011;29282;45.656;11.302;2022-12-18T16:10:14;8.40;;;4.10;;
33162;SDS011;29282;45.656;11.302;2022-12-18T16:12:41;6.05;;;4.10;;
33162;SDS011;29282;45.656;11.302;2022-12-18T16:15:07;5.75;;;4.25;;
33162;SDS011;29282;45.656;11.302;2022-12-18T16:17:35;6.55;;;4.75;;
33162;SDS011;29282;45.656;11.302;2022-12-18T16:20:00;8.00;;;4.57;;
33162;SDS011;29282;45.656;11.302;2022-12-18T16:22:30;10.00;;;4.95;;
33162;SDS011;29282;45.656;11.302;2022-12-18T16:24:56;10.05;;;5.20;;
33162;SDS011;29282;45.656;11.302;2022-12-18T16:27:23;7.75;;;4.55;;
33162;SDS011;29282;45.656;11.302;2022-12-18T16:29:49;9.30;;;4.95;;
33162;SDS011;29282;45.656;11.302;2022-12-18T16:32:16;8.13;;;5.32;;
33162;SDS011;29282;45.656;11.302;2022-12-18T16:34:43;13.60;;;5.53;;
33162;SDS011;29282;45.656;11.302;2022-12-18T16:37:11;7.95;;;5.20;;
33162;SDS011;29282;45.656;11.302;2022-12-18T16:39:38;8.93;;;5.88;;
33162;SDS011;29282;45.656;11.302;2022-12-18T16:44:39;11.32;;;5.43;;
33162;SDS011;29282;45.656;11.302;2022-12-18T16:47:05;9.20;;;4.85;;
33162;SDS011;29282;45.656;11.302;2022-12-18T16:49:32;10.60;;;5.60;;
33162;SDS011;29282;45.656;11.302;2022-12-18T16:51:57;15.52;;;5.20;;
33162;SDS011;29282;45.656;11.302;2022-12-18T16:54:26;15.27;;;5.78;;
33162;SDS011;29282;45.656;11.302;2022-12-18T16:56:54;10.73;;;5.72;;
33162;SDS011;29282;45.656;11.302;2022-12-18T16:59:21;9.13;;;6.25;;
33162;SDS011;29282;45.656;11.302;2022-12-18T17:01:47;12.02;;;5.97;;
33162;SDS011;29282;45.656;11.302;2022-12-18T17:04:13;11.02;;;6.30;;
33162;SDS011;29282;45.656;11.302;2022-12-18T17:06:42;8.63;;;5.85;;
33162;SDS011;29282;45.656;11.302;2022-12-18T17:09:13;12.38;;;5.78;;
33162;SDS011;29282;45.656;11.302;2022-12-18T17:11:48;17.23;;;6.38;;
33162;SDS011;29282;45.656;11.302;2022-12-18T17:14:18;12.68;;;6.53;;
33162;SDS011;29282;45.656;11.302;2022-12-18T17:16:46;12.85;;;6.28;;